Time;durP1;ratioP1;P1;durP2;ratioP2;P2;SDS_P1;SDS_P2;PMS_P1;PMS_P2;Temp;Humidity;BMP_temperature;BMP_pressure;BME280_temperature;BME280_humidity;BME280_pressure;Samples;Min_cycle;Max_cycle;Signal;HPM_P1;HPM_P2
2024/04/11 00:00:28;;;;;;;8.13;5.65;;;;;;;;;;768785;178;918180;-67
2024/04/11 00:02:54;;;;;;;13.20;6.40;;;;;;;;;;774464;179;921562;-66
2024/04/11 00:05:21;;;;;;;11.45;7.25;;;;;;;;;;778125;177;920637;-68
2024/04/11 00:07:46;;;;;;;8.60;5.07;;;;;;;;;;775692;177;720187;-66
2024/04/11 00:10:12;;;;;;;12.70;5.70;;;;;;;;;;774062;178;929421;-66
2024/04/11 00:12:38;;;;;;;9.30;6.10;;;;;;;;;;772318;180;914814;-68
2024/04/11 00:15:04;;;;;;;10.37;6.00;;;;;;;;;;778338;177;812399;-66
2024/04/11 00:17:30;;;;;;;12.30;6.80;;;;;;;;;;767800;178;815783;-66
2024/04/11 00:19:56;;;;;;;10.30;5.15;;;;;;;;;;769638;180;919933;-68
2024/04/11 00:22:22;;;;;;;13.77;7.70;;;;;;;;;;781406;177;812594;-68
2024/04/11 00:24:48;;;;;;;8.83;6.07;;;;;;;;;;774406;177;911230;-68
2024/04/11 00:27:13;;;;;;;15.10;6.67;;;;;;;;;;771774;176;816148;-68
2024/04/11 00:29:39;;;;;;;14.37;6.83;;;;;;;;;;778214;177;884701;-68
2024/04/11 00:32:05;;;;;;;19.37;6.63;;;;;;;;;;773690;177;908716;-67
2024/04/11 00:34:33;;;;;;;16.95;6.40;;;;;;;;;;775029;177;834451;-68
2024/04/11 00:36:59;;;;;;;13.40;6.97;;;;;;;;;;777906;180;799704;-68
2024/04/11 00:39:23;;;;;;;11.80;8.27;;;;;;;;;;757978;181;836568;-68
2024/04/11 00:41:49;;;;;;;9.70;6.10;;;;;;;;;;773181;177;638020;-67
2024/04/11 00:44:16;;;;;;;11.03;6.73;;;;;;;;;;773746;177;793741;-68
2024/04/11 00:46:43;;;;;;;14.70;6.47;;;;;;;;;;779921;177;708000;-68
2024/04/11 00:49:09;;;;;;;14.40;6.95;;;;;;;;;;773212;177;808080;-68
2024/04/11 00:51:35;;;;;;;13.43;8.23;;;;;;;;;;773503;177;778474;-68
2024/04/11 00:54:02;;;;;;;10.20;6.60;;;;;;;;;;778623;178;646474;-68
2024/04/11 00:56:26;;;;;;;11.47;7.30;;;;;;;;;;757257;178;755550;-68
2024/04/11 00:58:52;;;;;;;11.63;5.43;;;;;;;;;;771739;178;805659;-67
2024/04/11 01:01:18;;;;;;;19.50;7.80;;;;;;;;;;774858;180;913757;-67
2024/04/11 01:03:45;;;;;;;11.00;7.53;;;;;;;;;;772586;177;916477;-68
2024/04/11 01:06:11;;;;;;;13.40;8.30;;;;;;;;;;773027;179;855392;-67
2024/04/11 01:08:36;;;;;;;13.83;8.77;;;;;;;;;;773257;177;808708;-68
2024/04/11 01:11:02;;;;;;;17.93;7.80;;;;;;;;;;771872;181;818517;-66
2024/04/11 01:13:29;;;;;;;14.67;6.40;;;;;;;;;;770540;178;772422;-67
2024/04/11 01:15:54;;;;;;;18.63;8.10;;;;;;;;;;770831;177;916091;-67
2024/04/11 01:18:20;;;;;;;15.47;7.00;;;;;;;;;;774920;180;813982;-68
2024/04/11 01:20:46;;;;;;;11.50;6.70;;;;;;;;;;773362;177;823607;-67
2024/04/11 01:23:13;;;;;;;14.33;7.17;;;;;;;;;;771557;177;908852;-62
2024/04/11 01:25:37;;;;;;;10.17;5.53;;;;;;;;;;777533;177;928533;-64
2024/04/11 01:28:04;;;;;;;17.50;6.50;;;;;;;;;;772516;177;812816;-64
2024/04/11 01:30:29;;;;;;;6.57;4.72;;;;;;;;;;773386;177;812044;-64
2024/04/11 01:33:00;;;;;;;12.10;6.40;;;;;;;;;;773912;177;914148;-66
2024/04/11 01:35:26;;;;;;;11.40;6.80;;;;;;;;;;777796;177;797109;-66
2024/04/11 01:37:52;;;;;;;15.10;7.53;;;;;;;;;;771037;177;939469;-68
2024/04/11 01:40:18;;;;;;;15.93;6.72;;;;;;;;;;770784;179;920497;-67
2024/04/11 01:42:43;;;;;;;14.83;6.97;;;;;;;;;;777946;177;905800;-67
2024/04/11 01:45:10;;;;;;;17.60;6.67;;;;;;;;;;771091;177;863877;-65
2024/04/11 01:47:38;;;;;;;11.47;6.10;;;;;;;;;;771854;177;913034;-67
2024/04/11 01:50:03;;;;;;;14.25;8.18;;;;;;;;;;778088;177;734007;-66
2024/04/11 01:52:27;;;;;;;12.63;8.23;;;;;;;;;;776650;178;617886;-67
2024/04/11 01:55:00;;;;;;;10.73;7.20;;;;;;;;;;775564;177;813051;-67
2024/04/11 01:57:18;;;;;;;12.30;6.80;;;;;;;;;;775095;180;819693;-67
2024/04/11 01:59:46;;;;;;;18.23;8.57;;;;;;;;;;772347;179;810761;-68
2024/04/11 02:02:10;;;;;;;11.33;7.57;;;;;;;;;;768031;178;945118;-66
2024/04/11 02:04:36;;;;;;;13.63;7.07;;;;;;;;;;770360;178;906346;-68
2024/04/11 02:07:04;;;;;;;20.90;7.40;;;;;;;;;;777423;177;920991;-67
2024/04/11 02:09:31;;;;;;;20.40;8.10;;;;;;;;;;775758;177;712439;-66
2024/04/11 02:11:54;;;;;;;9.13;6.97;;;;;;;;;;772387;179;919378;-68
2024/04/11 02:14:20;;;;;;;12.60;6.60;;;;;;;;;;775793;177;818057;-68
2024/04/11 02:16:45;;;;;;;9.60;4.90;;;;;;;;;;772838;177;919385;-68
2024/04/11 02:19:12;;;;;;;11.47;6.13;;;;;;;;;;770426;177;893180;-68
2024/04/11 02:21:44;;;;;;;11.13;7.17;;;;;;;;;;777072;177;921149;-66
2024/04/11 02:24:11;;;;;;;12.50;7.37;;;;;;;;;;776758;177;913455;-68
2024/04/11 02:26:35;;;;;;;17.73;6.50;;;;;;;;;;772464;177;816786;-66
2024/04/11 02:29:01;;;;;;;12.17;8.23;;;;;;;;;;768287;181;915202;-67
2024/04/11 02:31:27;;;;;;;13.63;7.30;;;;;;;;;;778208;177;918786;-67
2024/04/11 02:33:53;;;;;;;20.00;7.70;;;;;;;;;;774654;179;904588;-66
2024/04/11 02:36:19;;;;;;;13.18;7.50;;;;;;;;;;771375;177;915311;-69
2024/04/11 02:38:45;;;;;;;11.67;6.90;;;;;;;;;;771821;180;816232;-66
2024/04/11 02:41:10;;;;;;;15.90;7.17;;;;;;;;;;770237;177;814343;-63
2024/04/11 02:43:39;;;;;;;12.43;7.53;;;;;;;;;;769875;177;921611;-63
2024/04/11 02:46:02;;;;;;;13.80;7.03;;;;;;;;;;774349;178;821538;-64
2024/04/11 02:48:28;;;;;;;10.17;7.17;;;;;;;;;;771495;177;922924;-65
2024/04/11 02:50:55;;;;;;;16.30;8.07;;;;;;;;;;774542;179;817156;-63
2024/04/11 02:53:20;;;;;;;9.33;5.83;;;;;;;;;;773090;177;914191;-64
2024/04/11 02:55:46;;;;;;;13.43;7.90;;;;;;;;;;772368;177;918232;-64
2024/04/11 02:58:11;;;;;;;13.73;7.40;;;;;;;;;;774925;177;814821;-65
2024/04/11 03:00:37;;;;;;;15.47;7.57;;;;;;;;;;770890;178;901190;-63
2024/04/11 03:03:03;;;;;;;12.13;7.30;;;;;;;;;;779872;177;713846;-64
2024/04/11 03:05:29;;;;;;;15.93;8.03;;;;;;;;;;774369;177;818859;-67
2024/04/11 03:07:55;;;;;;;13.50;7.43;;;;;;;;;;773282;177;895836;-67
2024/04/11 03:10:21;;;;;;;19.57;6.37;;;;;;;;;;778016;177;818571;-67
2024/04/11 03:12:46;;;;;;;18.70;7.93;;;;;;;;;;775398;177;745948;-67
2024/04/11 03:15:12;;;;;;;13.73;9.07;;;;;;;;;;775343;177;817694;-66
2024/04/11 03:17:38;;;;;;;13.30;7.90;;;;;;;;;;777379;177;708181;-66
2024/04/11 03:20:04;;;;;;;13.30;9.33;;;;;;;;;;774122;179;726058;-67
2024/04/11 03:22:30;;;;;;;15.17;8.47;;;;;;;;;;770168;179;811611;-66
2024/04/11 03:24:56;;;;;;;14.47;9.27;;;;;;;;;;773718;178;799081;-68
2024/04/11 03:27:22;;;;;;;14.27;9.27;;;;;;;;;;773876;181;632339;-68
2024/04/11 03:29:48;;;;;;;16.63;10.30;;;;;;;;;;768498;178;804349;-68
2024/04/11 03:32:13;;;;;;;19.50;10.67;;;;;;;;;;771067;178;918928;-67
2024/04/11 03:34:40;;;;;;;15.27;9.53;;;;;;;;;;778849;179;822476;-66
2024/04/11 03:37:05;;;;;;;15.23;9.10;;;;;;;;;;771186;178;824153;-66
2024/04/11 03:39:31;;;;;;;19.53;10.30;;;;;;;;;;772232;177;820024;-66
2024/04/11 03:41:57;;;;;;;16.30;9.50;;;;;;;;;;774547;178;922026;-66
2024/04/11 03:44:23;;;;;;;14.80;9.00;;;;;;;;;;772666;177;797203;-66
2024/04/11 03:46:48;;;;;;;26.03;9.50;;;;;;;;;;773372;177;817579;-66
2024/04/11 03:49:14;;;;;;;17.20;10.50;;;;;;;;;;781943;177;659453;-66
2024/04/11 03:51:41;;;;;;;19.30;9.10;;;;;;;;;;773649;177;836805;-66
2024/04/11 03:54:07;;;;;;;20.07;8.30;;;;;;;;;;772609;177;913092;-67
2024/04/11 03:56:33;;;;;;;17.83;10.97;;;;;;;;;;771279;177;819822;-66
2024/04/11 03:58:59;;;;;;;17.50;9.77;;;;;;;;;;772590;177;718142;-68
2024/04/11 04:01:26;;;;;;;14.07;9.57;;;;;;;;;;774507;177;763736;-67
2024/04/11 04:03:52;;;;;;;16.63;10.60;;;;;;;;;;772617;177;705545;-66
2024/04/11 04:06:18;;;;;;;20.67;10.20;;;;;;;;;;776795;177;796480;-68
2024/04/11 04:08:45;;;;;;;16.73;10.40;;;;;;;;;;773000;179;934650;-65
2024/04/11 04:11:11;;;;;;;12.77;9.13;;;;;;;;;;771567;177;760608;-67
2024/04/11 04:13:37;;;;;;;14.47;9.87;;;;;;;;;;780143;179;821260;-68
2024/04/11 04:16:08;;;;;;;15.50;10.20;;;;;;;;;;774609;177;744780;-66
2024/04/11 04:18:30;;;;;;;20.57;10.00;;;;;;;;;;774198;177;813788;-66
2024/04/11 04:20:56;;;;;;;18.50;9.53;;;;;;;;;;772711;177;908991;-67
2024/04/11 04:23:22;;;;;;;13.43;9.50;;;;;;;;;;776154;177;803180;-66
2024/04/11 04:25:48;;;;;;;21.33;10.30;;;;;;;;;;774846;177;908485;-66
2024/04/11 04:28:18;;;;;;;16.30;12.43;;;;;;;;;;772265;177;785323;-66
2024/04/11 04:30:44;;;;;;;15.07;10.10;;;;;;;;;;778873;179;892101;-67
2024/04/11 04:33:05;;;;;;;13.80;10.70;;;;;;;;;;773988;177;650388;-67
2024/04/11 04:35:31;;;;;;;13.87;9.83;;;;;;;;;;775126;177;646368;-63
2024/04/11 04:37:57;;;;;;;15.33;10.13;;;;;;;;;;781962;177;660467;-62
2024/04/11 04:40:25;;;;;;;18.27;11.05;;;;;;;;;;772582;177;837244;-64
2024/04/11 04:42:49;;;;;;;19.73;9.77;;;;;;;;;;773207;177;636100;-63
2024/04/11 04:45:15;;;;;;;19.13;10.80;;;;;;;;;;776712;178;660512;-63
2024/04/11 04:47:40;;;;;;;18.07;10.57;;;;;;;;;;771117;180;817996;-64
2024/04/11 04:50:06;;;;;;;24.37;10.20;;;;;;;;;;773880;177;630970;-65
2024/04/11 04:52:32;;;;;;;14.93;9.20;;;;;;;;;;771581;177;1006681;-64
2024/04/11 04:54:58;;;;;;;23.03;11.70;;;;;;;;;;779121;178;667420;-62
2024/04/11 04:57:25;;;;;;;21.13;11.63;;;;;;;;;;773541;177;693079;-63
2024/04/11 04:59:49;;;;;;;16.67;11.05;;;;;;;;;;774276;177;764395;-67
2024/04/11 05:02:15;;;;;;;23.93;11.20;;;;;;;;;;776285;177;714730;-68
2024/04/11 05:04:41;;;;;;;21.02;11.70;;;;;;;;;;772079;179;849159;-68
2024/04/11 05:07:08;;;;;;;15.20;9.10;;;;;;;;;;772809;177;770142;-69
2024/04/11 05:09:35;;;;;;;15.93;10.27;;;;;;;;;;777999;179;820010;-68
2024/04/11 05:12:04;;;;;;;16.70;10.57;;;;;;;;;;774028;177;820613;-68
2024/04/11 05:14:27;;;;;;;22.07;10.97;;;;;;;;;;770188;177;702101;-66
2024/04/11 05:16:53;;;;;;;15.43;9.00;;;;;;;;;;772842;177;796901;-68
2024/04/11 05:19:20;;;;;;;14.57;8.87;;;;;;;;;;773905;180;818557;-68
2024/04/11 05:21:45;;;;;;;19.80;9.30;;;;;;;;;;769149;177;1183733;-65
2024/04/11 05:24:10;;;;;;;16.77;10.87;;;;;;;;;;776818;177;747491;-68
2024/04/11 05:26:36;;;;;;;17.13;9.20;;;;;;;;;;778113;177;635506;-66
2024/04/11 05:29:04;;;;;;;13.97;9.30;;;;;;;;;;775132;177;812226;-65
2024/04/11 05:31:28;;;;;;;26.07;10.37;;;;;;;;;;776262;177;628714;-65
2024/04/11 05:33:54;;;;;;;12.67;8.00;;;;;;;;;;775698;177;813889;-64
2024/04/11 05:36:24;;;;;;;17.33;7.27;;;;;;;;;;772007;177;784181;-66
2024/04/11 05:38:46;;;;;;;17.63;9.53;;;;;;;;;;768306;178;917710;-65
2024/04/11 05:41:14;;;;;;;11.47;8.20;;;;;;;;;;779337;180;639052;-66
2024/04/11 05:43:39;;;;;;;11.30;5.72;;;;;;;;;;771069;177;809961;-65
2024/04/11 05:46:05;;;;;;;15.23;8.00;;;;;;;;;;772253;177;767198;-65
2024/04/11 05:48:31;;;;;;;19.37;9.50;;;;;;;;;;773706;178;916512;-64
2024/04/11 05:50:56;;;;;;;10.73;7.60;;;;;;;;;;778875;177;908197;-65
2024/04/11 05:53:23;;;;;;;15.50;9.40;;;;;;;;;;773531;177;909411;-65
2024/04/11 05:55:48;;;;;;;22.30;8.07;;;;;;;;;;772278;178;918589;-65
2024/04/11 05:58:14;;;;;;;14.30;6.50;;;;;;;;;;776083;178;856367;-63
2024/04/11 06:00:40;;;;;;;10.13;6.23;;;;;;;;;;770197;177;788252;-64
2024/04/11 06:03:11;;;;;;;12.33;7.53;;;;;;;;;;773759;177;616113;-65
2024/04/11 06:05:34;;;;;;;10.73;6.13;;;;;;;;;;776782;177;619390;-65
2024/04/11 06:08:00;;;;;;;12.90;7.43;;;;;;;;;;768093;177;910307;-63
2024/04/11 06:10:29;;;;;;;12.93;6.90;;;;;;;;;;771935;177;921192;-64
2024/04/11 06:12:52;;;;;;;8.70;4.17;;;;;;;;;;771533;177;829224;-65
2024/04/11 06:15:19;;;;;;;15.47;9.50;;;;;;;;;;777631;179;809292;-65
2024/04/11 06:17:44;;;;;;;12.70;7.13;;;;;;;;;;772042;177;940972;-65
2024/04/11 06:20:15;;;;;;;10.50;5.70;;;;;;;;;;773247;179;907939;-65
2024/04/11 06:22:35;;;;;;;9.27;4.83;;;;;;;;;;776391;177;924834;-64
2024/04/11 06:25:01;;;;;;;10.30;6.10;;;;;;;;;;773167;177;810461;-65
2024/04/11 06:27:27;;;;;;;10.60;5.00;;;;;;;;;;773687;177;717148;-63
2024/04/11 06:29:56;;;;;;;15.80;6.80;;;;;;;;;;779327;177;717821;-64
2024/04/11 06:32:19;;;;;;;10.50;6.60;;;;;;;;;;773356;177;837870;-64
2024/04/11 06:34:45;;;;;;;10.50;5.23;;;;;;;;;;772058;177;898545;-64
2024/04/11 06:37:11;;;;;;;12.30;7.10;;;;;;;;;;776628;177;902187;-65
2024/04/11 06:39:36;;;;;;;13.37;9.13;;;;;;;;;;770855;179;887078;-65
2024/04/11 06:42:10;;;;;;;10.97;7.00;;;;;;;;;;772193;177;833189;-65
2024/04/11 06:44:28;;;;;;;16.37;7.67;;;;;;;;;;772068;178;760097;-65
2024/04/11 06:46:54;;;;;;;14.13;8.20;;;;;;;;;;778861;180;686339;-65
2024/04/11 06:49:20;;;;;;;17.50;8.60;;;;;;;;;;773723;177;813777;-64
2024/04/11 06:51:47;;;;;;;9.13;7.00;;;;;;;;;;771504;177;925089;-65
2024/04/11 06:54:14;;;;;;;11.10;8.45;;;;;;;;;;779258;179;798751;-64
2024/04/11 06:56:37;;;;;;;11.97;8.20;;;;;;;;;;771525;180;843495;-64
2024/04/11 06:59:10;;;;;;;12.13;6.83;;;;;;;;;;770730;177;853047;-64
2024/04/11 07:01:29;;;;;;;17.50;9.00;;;;;;;;;;776351;180;890306;-65
2024/04/11 07:04:00;;;;;;;15.63;7.63;;;;;;;;;;774437;178;628928;-65
2024/04/11 07:06:22;;;;;;;11.73;7.13;;;;;;;;;;776608;177;629627;-65
2024/04/11 07:08:49;;;;;;;12.43;7.60;;;;;;;;;;778563;179;686674;-65
2024/04/11 07:11:19;;;;;;;12.20;7.50;;;;;;;;;;770855;177;918834;-64
2024/04/11 07:13:45;;;;;;;13.13;9.07;;;;;;;;;;773847;180;820010;-64
2024/04/11 07:16:16;;;;;;;7.10;5.20;;;;;;;;;;772466;178;812690;-66
2024/04/11 07:18:44;;;;;;;11.00;9.00;;;;;;;;;;777126;177;813484;-64
2024/04/11 07:21:13;;;;;;;16.10;8.40;;;;;;;;;;777041;179;814509;-65
2024/04/11 07:23:37;;;;;;;14.03;7.37;;;;;;;;;;770488;177;877650;-65
2024/04/11 07:26:02;;;;;;;17.27;10.23;;;;;;;;;;769005;179;919304;-65
2024/04/11 07:28:31;;;;;;;14.68;7.30;;;;;;;;;;777633;177;710971;-65
2024/04/11 07:30:54;;;;;;;11.43;8.57;;;;;;;;;;775305;178;753244;-65
2024/04/11 07:33:20;;;;;;;13.90;9.90;;;;;;;;;;775943;177;919188;-66
2024/04/11 07:35:45;;;;;;;14.20;7.40;;;;;;;;;;776725;179;921189;-66
2024/04/11 07:38:13;;;;;;;7.40;5.93;;;;;;;;;;773065;179;918032;-64
2024/04/11 07:40:45;;;;;;;10.90;6.73;;;;;;;;;;772237;177;923207;-65
2024/04/11 07:43:06;;;;;;;10.80;6.87;;;;;;;;;;774939;180;815894;-64
2024/04/11 07:45:35;;;;;;;9.60;6.20;;;;;;;;;;756378;181;917395;-63
2024/04/11 07:47:59;;;;;;;9.97;7.30;;;;;;;;;;762705;180;900343;-64
2024/04/11 07:50:28;;;;;;;10.50;7.62;;;;;;;;;;762985;180;918671;-65
2024/04/11 07:52:53;;;;;;;9.70;5.53;;;;;;;;;;764571;180;918166;-64
2024/04/11 07:55:20;;;;;;;10.90;7.33;;;;;;;;;;765318;180;847885;-64
2024/04/11 07:57:46;;;;;;;8.10;5.70;;;;;;;;;;768077;180;714639;-65
2024/04/11 08:00:20;;;;;;;13.20;7.33;;;;;;;;;;772519;179;878124;-64
2024/04/11 08:02:38;;;;;;;6.00;3.57;;;;;;;;;;767579;180;817347;-64
2024/04/11 08:05:04;;;;;;;12.93;6.87;;;;;;;;;;769900;177;921211;-64
2024/04/11 08:07:30;;;;;;;6.75;5.50;;;;;;;;;;775904;180;866315;-65
2024/04/11 08:09:58;;;;;;;13.80;5.87;;;;;;;;;;771959;181;624607;-69
2024/04/11 08:12:22;;;;;;;9.77;6.75;;;;;;;;;;771998;177;814025;-68
2024/04/11 08:14:48;;;;;;;8.43;3.97;;;;;;;;;;771838;178;904304;-68
2024/04/11 08:17:13;;;;;;;10.70;6.57;;;;;;;;;;780030;179;708724;-67
2024/04/11 08:19:39;;;;;;;7.43;5.40;;;;;;;;;;773565;179;804731;-67
2024/04/11 08:22:05;;;;;;;8.93;5.27;;;;;;;;;;773196;177;916947;-67
2024/04/11 08:24:31;;;;;;;8.97;4.57;;;;;;;;;;775694;178;727544;-69
2024/04/11 08:26:57;;;;;;;8.77;4.93;;;;;;;;;;773868;178;812586;-68
2024/04/11 08:29:23;;;;;;;7.00;4.73;;;;;;;;;;773019;178;786774;-67
2024/04/11 08:31:49;;;;;;;7.70;3.77;;;;;;;;;;779581;177;813788;-67
2024/04/11 08:34:14;;;;;;;6.10;4.00;;;;;;;;;;770338;177;934612;-68
2024/04/11 08:36:40;;;;;;;9.30;4.47;;;;;;;;;;773848;179;816696;-67
2024/04/11 08:39:09;;;;;;;11.57;5.00;;;;;;;;;;774471;179;720631;-69
2024/04/11 08:41:32;;;;;;;5.00;3.57;;;;;;;;;;769719;180;621900;-68
2024/04/11 08:43:59;;;;;;;9.23;4.97;;;;;;;;;;772812;177;759086;-68
2024/04/11 08:46:24;;;;;;;10.52;5.22;;;;;;;;;;773472;177;815453;-67
2024/04/11 08:48:51;;;;;;;8.23;5.23;;;;;;;;;;781929;179;713589;-68
2024/04/11 08:51:20;;;;;;;9.30;4.77;;;;;;;;;;778787;179;759159;-67
2024/04/11 08:53:46;;;;;;;8.30;5.00;;;;;;;;;;775253;179;816841;-67
2024/04/11 08:56:11;;;;;;;6.20;4.20;;;;;;;;;;775654;177;922494;-67
2024/04/11 08:58:39;;;;;;;6.87;3.80;;;;;;;;;;777024;177;761422;-67
2024/04/11 09:01:04;;;;;;;5.85;4.50;;;;;;;;;;774518;177;719389;-66
2024/04/11 09:03:30;;;;;;;8.20;4.47;;;;;;;;;;773559;177;804277;-68
2024/04/11 09:05:55;;;;;;;6.67;4.17;;;;;;;;;;772942;180;616506;-68
2024/04/11 09:08:25;;;;;;;9.23;5.00;;;;;;;;;;777320;177;717165;-67
2024/04/11 09:10:47;;;;;;;6.95;3.83;;;;;;;;;;768741;177;919821;-65
2024/04/11 09:13:15;;;;;;;9.13;5.60;;;;;;;;;;780149;177;629390;-62
2024/04/11 09:15:40;;;;;;;6.03;3.87;;;;;;;;;;773278;177;619081;-63
2024/04/11 09:18:06;;;;;;;8.57;4.10;;;;;;;;;;775281;177;627191;-63
2024/04/11 09:20:34;;;;;;;7.40;3.90;;;;;;;;;;775298;177;820290;-64
2024/04/11 09:23:00;;;;;;;5.85;3.15;;;;;;;;;;767547;178;1225927;-63
2024/04/11 09:25:26;;;;;;;9.70;5.33;;;;;;;;;;772110;177;714822;-63
2024/04/11 09:27:54;;;;;;;7.70;4.20;;;;;;;;;;777453;177;703562;-64
2024/04/11 09:30:20;;;;;;;12.30;4.60;;;;;;;;;;776942;177;625133;-64
2024/04/11 09:32:44;;;;;;;5.60;3.77;;;;;;;;;;773692;180;784799;-63
2024/04/11 09:35:12;;;;;;;7.67;4.67;;;;;;;;;;774705;177;918424;-64
2024/04/11 09:37:35;;;;;;;10.17;4.60;;;;;;;;;;778675;177;705786;-64
2024/04/11 09:40:11;;;;;;;21.17;6.93;;;;;;;;;;775860;179;808498;-65
2024/04/11 09:42:27;;;;;;;9.70;4.43;;;;;;;;;;773149;177;809739;-62
2024/04/11 09:44:53;;;;;;;13.67;7.57;;;;;;;;;;777297;179;921657;-64
2024/04/11 09:47:19;;;;;;;8.80;4.07;;;;;;;;;;773504;177;818841;-65
2024/04/11 09:52:18;;;;;;;9.93;4.80;;;;;;;;;;774977;179;677954;-64
2024/04/11 09:54:44;;;;;;;6.13;3.77;;;;;;;;;;783578;179;620730;-63
2024/04/11 09:57:12;;;;;;;6.33;4.47;;;;;;;;;;776297;179;638481;-64
2024/04/11 09:59:36;;;;;;;6.50;3.60;;;;;;;;;;777881;177;623452;-62
2024/04/11 10:02:02;;;;;;;11.03;4.43;;;;;;;;;;782512;177;636199;-62
2024/04/11 10:04:35;;;;;;;5.50;3.70;;;;;;;;;;777749;177;618844;-62
2024/04/11 10:06:53;;;;;;;10.40;6.00;;;;;;;;;;777156;177;701962;-63
2024/04/11 10:09:19;;;;;;;7.00;4.37;;;;;;;;;;778311;177;709190;-63
2024/04/11 10:11:46;;;;;;;9.33;4.20;;;;;;;;;;772492;177;640368;-63
2024/04/11 10:14:17;;;;;;;12.98;4.90;;;;;;;;;;770118;177;906706;-63
2024/04/11 10:16:48;;;;;;;6.55;4.60;;;;;;;;;;772230;177;855809;-62
2024/04/11 10:19:14;;;;;;;8.30;5.00;;;;;;;;;;778423;179;613462;-63
2024/04/11 10:21:38;;;;;;;12.87;4.83;;;;;;;;;;773968;177;692928;-62
2024/04/11 10:24:08;;;;;;;8.70;4.00;;;;;;;;;;771195;179;820073;-63
2024/04/11 10:26:34;;;;;;;7.53;4.30;;;;;;;;;;773665;177;815015;-63
2024/04/11 10:29:06;;;;;;;10.97;4.30;;;;;;;;;;772082;177;618861;-62
2024/04/11 10:31:32;;;;;;;7.77;3.73;;;;;;;;;;773040;179;716015;-63
2024/04/11 10:33:59;;;;;;;7.90;4.10;;;;;;;;;;770065;177;750610;-63
2024/04/11 10:36:25;;;;;;;7.00;4.43;;;;;;;;;;776230;177;700552;-63
2024/04/11 10:38:53;;;;;;;7.87;5.03;;;;;;;;;;772014;180;938947;-64
2024/04/11 10:41:19;;;;;;;9.47;4.13;;;;;;;;;;770613;179;818828;-64
2024/04/11 10:43:45;;;;;;;5.87;3.90;;;;;;;;;;773876;177;712990;-64
2024/04/11 10:46:12;;;;;;;4.80;4.00;;;;;;;;;;774587;179;633564;-63
2024/04/11 10:48:40;;;;;;;10.90;4.70;;;;;;;;;;774326;179;622943;-63
2024/04/11 10:51:01;;;;;;;7.43;5.60;;;;;;;;;;774363;177;745956;-64
2024/04/11 10:53:27;;;;;;;7.57;5.00;;;;;;;;;;775213;177;808126;-64
2024/04/11 10:55:55;;;;;;;9.23;5.57;;;;;;;;;;770521;180;808362;-67
2024/04/11 10:58:22;;;;;;;8.17;5.33;;;;;;;;;;775254;177;709725;-67
2024/04/11 11:03:32;;;;;;;15.73;5.37;;;;;;;;;;771958;177;878594;-68
2024/04/11 11:05:45;;;;;;;18.00;6.10;;;;;;;;;;772026;177;1025433;-66
2024/04/11 11:08:10;;;;;;;5.80;4.40;;;;;;;;;;776876;178;626435;-67
2024/04/11 11:10:35;;;;;;;8.80;4.83;;;;;;;;;;778924;180;745672;-67
2024/04/11 11:13:01;;;;;;;12.40;5.30;;;;;;;;;;771317;177;917688;-67
2024/04/11 11:15:27;;;;;;;10.20;5.30;;;;;;;;;;773096;177;820713;-66
2024/04/11 11:17:54;;;;;;;12.83;5.50;;;;;;;;;;780466;177;817587;-67
2024/04/11 11:20:18;;;;;;;13.90;7.17;;;;;;;;;;775535;177;899216;-68
2024/04/11 11:22:44;;;;;;;10.63;6.13;;;;;;;;;;773811;177;750401;-67
2024/04/11 11:25:10;;;;;;;3.77;2.70;;;;;;;;;;773964;177;918359;-66
2024/04/11 11:27:36;;;;;;;10.30;6.30;;;;;;;;;;775568;179;719223;-68
2024/04/11 11:30:06;;;;;;;6.23;4.03;;;;;;;;;;773239;179;817267;-67
2024/04/11 11:32:32;;;;;;;10.13;5.87;;;;;;;;;;779332;180;623715;-68
2024/04/11 11:40:46;;;;;;;10.87;5.77;;;;;;;;;;788072;170;892393;-68
2024/04/11 11:43:16;;;;;;;7.50;4.60;;;;;;;;;;774405;179;920554;-68
2024/04/11 11:46:16;;;;;;;9.37;5.30;;;;;;;;;;770241;179;917886;-65
2024/04/11 11:48:12;;;;;;;13.37;5.53;;;;;;;;;;772299;180;614157;-65
2024/04/11 11:50:35;;;;;;;12.33;6.10;;;;;;;;;;777627;180;643110;-65
2024/04/11 11:52:55;;;;;;;19.07;8.03;;;;;;;;;;775591;180;635236;-65
2024/04/11 11:55:18;;;;;;;11.50;5.37;;;;;;;;;;756801;183;715451;-65
2024/04/11 11:57:44;;;;;;;7.53;4.70;;;;;;;;;;763972;181;773675;-64
2024/04/11 12:02:41;;;;;;;8.73;4.83;;;;;;;;;;766999;180;856892;-63
2024/04/11 12:05:07;;;;;;;7.18;5.12;;;;;;;;;;769382;180;650356;-65
2024/04/11 12:07:34;;;;;;;11.73;5.00;;;;;;;;;;770725;181;746950;-64
2024/04/11 12:10:12;;;;;;;10.20;4.83;;;;;;;;;;766401;180;910723;-65
2024/04/11 12:12:30;;;;;;;9.40;4.80;;;;;;;;;;766665;181;779519;-64
2024/04/11 12:14:54;;;;;;;6.10;4.10;;;;;;;;;;769514;180;751021;-66
2024/04/11 12:17:23;;;;;;;6.67;4.33;;;;;;;;;;770499;180;811846;-65
2024/04/11 12:19:47;;;;;;;8.70;4.90;;;;;;;;;;763645;181;788835;-65
2024/04/11 12:22:16;;;;;;;6.80;4.13;;;;;;;;;;763730;180;809885;-65
2024/04/11 12:24:39;;;;;;;7.87;4.27;;;;;;;;;;771467;180;706034;-64
2024/04/11 12:27:05;;;;;;;10.30;4.73;;;;;;;;;;769583;181;727655;-64
2024/04/11 12:29:31;;;;;;;5.93;4.83;;;;;;;;;;769551;180;741245;-63
2024/04/11 12:31:58;;;;;;;8.90;5.00;;;;;;;;;;771514;180;705858;-65
2024/04/11 12:34:23;;;;;;;8.73;3.87;;;;;;;;;;766071;181;715248;-65
2024/04/11 12:39:21;;;;;;;8.43;4.73;;;;;;;;;;769252;180;803143;-66
2024/04/11 12:41:50;;;;;;;10.40;4.80;;;;;;;;;;773118;180;812913;-64
2024/04/11 12:44:13;;;;;;;5.83;3.90;;;;;;;;;;764408;179;811267;-68
2024/04/11 12:46:42;;;;;;;9.00;4.80;;;;;;;;;;768227;180;825326;-68
2024/04/11 12:49:09;;;;;;;10.33;6.00;;;;;;;;;;770698;181;639753;-69
2024/04/11 12:51:31;;;;;;;5.70;4.53;;;;;;;;;;768697;180;922650;-69
2024/04/11 12:53:57;;;;;;;6.53;4.40;;;;;;;;;;768424;179;703489;-69
2024/04/11 12:56:23;;;;;;;5.97;4.47;;;;;;;;;;770902;180;823452;-69
2024/04/11 12:58:59;;;;;;;8.33;4.97;;;;;;;;;;769183;180;810233;-69
2024/04/11 13:01:18;;;;;;;13.23;4.97;;;;;;;;;;765967;180;898757;-68
2024/04/11 13:03:56;;;;;;;8.23;5.23;;;;;;;;;;766217;180;979578;-69
2024/04/11 13:06:29;;;;;;;10.35;4.65;;;;;;;;;;771220;179;926931;-69
2024/04/11 13:09:00;;;;;;;8.20;6.03;;;;;;;;;;771821;181;658202;-68
2024/04/11 13:11:36;;;;;;;7.03;5.07;;;;;;;;;;766531;180;902885;-69
2024/04/11 13:13:52;;;;;;;6.70;4.70;;;;;;;;;;766035;181;718767;-69
2024/04/11 13:16:12;;;;;;;8.13;5.00;;;;;;;;;;770955;180;853543;-68
2024/04/11 13:18:38;;;;;;;11.80;5.73;;;;;;;;;;763034;180;901198;-69
2024/04/11 13:21:13;;;;;;;8.60;4.80;;;;;;;;;;758577;181;917170;-68
2024/04/11 13:23:32;;;;;;;7.90;5.13;;;;;;;;;;769141;181;897619;-68
2024/04/11 13:25:57;;;;;;;7.30;4.13;;;;;;;;;;766071;180;655173;-69
2024/04/11 13:30:31;;;;;;;8.33;5.70;;;;;;;;;;786737;173;919711;-65
2024/04/11 13:32:55;;;;;;;6.07;4.43;;;;;;;;;;770014;179;622900;-67
2024/04/11 13:38:07;;;;;;;7.33;4.13;;;;;;;;;;776965;179;804408;-65
2024/04/11 13:43:01;;;;;;;8.93;4.63;;;;;;;;;;763207;179;904784;-66
2024/04/11 13:45:26;;;;;;;11.80;5.23;;;;;;;;;;770991;179;818940;-67
2024/04/11 13:47:55;;;;;;;8.47;5.03;;;;;;;;;;765499;183;922051;-67
2024/04/11 13:50:34;;;;;;;8.20;5.03;;;;;;;;;;764253;180;810961;-67
2024/04/11 13:52:50;;;;;;;6.03;3.90;;;;;;;;;;766301;181;806154;-66
2024/04/11 13:55:18;;;;;;;8.53;4.23;;;;;;;;;;760333;183;716469;-67
2024/04/11 13:57:41;;;;;;;17.30;5.80;;;;;;;;;;768962;180;819545;-66
2024/04/11 14:00:09;;;;;;;8.70;4.63;;;;;;;;;;769334;180;797650;-67
2024/04/11 14:05:09;;;;;;;9.37;4.87;;;;;;;;;;769951;179;933904;-67
2024/04/11 14:07:29;;;;;;;7.90;4.97;;;;;;;;;;765938;183;818242;-66
2024/04/11 14:09:59;;;;;;;9.60;5.63;;;;;;;;;;757683;182;876448;-67
2024/04/11 14:12:24;;;;;;;9.13;6.00;;;;;;;;;;766203;179;922417;-68
2024/04/11 14:14:51;;;;;;;11.80;6.40;;;;;;;;;;774941;179;818674;-67
2024/04/11 14:17:22;;;;;;;10.93;4.47;;;;;;;;;;760005;183;809275;-67
2024/04/11 14:19:43;;;;;;;16.93;5.40;;;;;;;;;;750893;183;919439;-67
2024/04/11 14:22:09;;;;;;;17.53;5.63;;;;;;;;;;772259;180;916088;-68
2024/04/11 14:24:35;;;;;;;8.47;5.03;;;;;;;;;;766535;179;901964;-67
2024/04/11 14:27:06;;;;;;;9.90;4.83;;;;;;;;;;770529;179;921391;-66
2024/04/11 14:29:27;;;;;;;8.70;4.70;;;;;;;;;;767942;179;872444;-66
2024/04/11 14:31:53;;;;;;;8.13;5.57;;;;;;;;;;768716;180;880582;-66
2024/04/11 14:34:19;;;;;;;10.70;5.37;;;;;;;;;;770313;180;663594;-67
2024/04/11 14:39:17;;;;;;;8.40;5.20;;;;;;;;;;767290;180;739072;-63
2024/04/11 14:41:43;;;;;;;10.60;5.87;;;;;;;;;;772340;179;770179;-63